createdAt,value
2022-08-10T00:01:00.468Z,101234.63
2022-08-10T00:03:27.825Z,101230.19
2022-08-10T00:05:56.633Z,101239.34
2022-08-10T00:08:25.229Z,101248.69
2022-08-10T00:10:53.765Z,101250.38
2022-08-10T00:13:21.398Z,101253.38
2022-08-10T00:15:53.481Z,101251.44
2022-08-10T00:18:31.555Z,101253.13
2022-08-10T00:21:07.299Z,101250.38
2022-08-10T00:23:35.157Z,101245.13
2022-08-10T00:26:02.812Z,101248.69
2022-08-10T00:28:30.414Z,101247.88
2022-08-10T00:30:57.879Z,101248.69
2022-08-10T00:33:25.303Z,101253.38
2022-08-10T00:35:52.767Z,101251.44
2022-08-10T00:38:20.194Z,101247.06
2022-08-10T00:40:47.631Z,101250.88
2022-08-10T00:43:15.135Z,101250.88
2022-08-10T00:45:58.558Z,101243.72
2022-08-10T00:48:29.230Z,101250.88
2022-08-10T00:50:58.315Z,101252.81
2022-08-10T00:53:29.372Z,101250.88
2022-08-10T00:57:12.821Z,101253.66
2022-08-10T00:58:44.389Z,101255.31
2022-08-10T01:02:11.242Z,101259.16
2022-08-10T01:04:36.616Z,101262.75
2022-08-10T01:06:52.403Z,101267.44
2022-08-10T01:10:03.838Z,101253.09
2022-08-10T01:12:41.010Z,101252.81
2022-08-10T01:15:17.033Z,101254.75
2022-08-10T01:17:55.620Z,101243.97
2022-08-10T01:20:44.748Z,101240.41
2022-08-10T01:23:21.372Z,101238.22
2022-08-10T01:26:11.695Z,101236.53
2022-08-10T01:28:46.925Z,101237.34
2022-08-10T01:31:16.280Z,101220.81
2022-08-10T01:33:59.020Z,101226.88
2022-08-10T01:36:32.860Z,101236.78
2022-08-10T01:39:03.669Z,101234.03
2022-08-10T01:41:45.891Z,101233.47
2022-08-10T01:44:16.531Z,101224.94
2022-08-10T01:46:53.170Z,101232.38
2022-08-10T01:49:24.510Z,101231.00
2022-08-10T01:51:53.405Z,101224.94
2022-08-10T01:54:22.329Z,101224.38
2022-08-10T01:56:51.319Z,101233.22
2022-08-10T01:59:37.674Z,101233.22
2022-08-10T02:02:13.224Z,101233.22
2022-08-10T02:04:43.639Z,101239.81
2022-08-10T02:07:16.380Z,101241.75
2022-08-10T02:09:47.368Z,101237.91
2022-08-10T02:12:16.432Z,101237.91
2022-08-10T02:14:48.166Z,101233.47
2022-08-10T02:17:58.637Z,101224.09
2022-08-10T02:20:25.757Z,101231.53
2022-08-10T02:23:08.666Z,101226.00
2022-08-10T02:25:42.002Z,101241.75
2022-08-10T02:28:27.464Z,101239.22
2022-08-10T02:31:12.950Z,101224.38
2022-08-10T02:33:56.832Z,101232.66
2022-08-10T02:36:27.134Z,101219.69
2022-08-10T02:38:58.899Z,101221.59
2022-08-10T02:45:01.159Z,101229.06
2022-08-10T02:45:18.085Z,101220.78
2022-08-10T02:47:23.035Z,101221.84
2022-08-10T02:50:15.076Z,101209.97
2022-08-10T02:52:46.780Z,101206.09
2022-08-10T02:55:49.857Z,101216.31
2022-08-10T02:58:26.664Z,101209.16
2022-08-10T03:00:55.034Z,101204.47
2022-08-10T03:03:27.368Z,101206.66
2022-08-10T03:05:57.251Z,101206.66
2022-08-10T03:08:26.302Z,101214.94
2022-08-10T03:10:53.761Z,101212.19
2022-08-10T03:13:21.196Z,101208.59
2022-08-10T03:15:48.668Z,101207.47
2022-08-10T03:18:16.177Z,101207.75
2022-08-10T03:20:43.918Z,101205.84
2022-08-10T03:23:13.385Z,101215.75
2022-08-10T03:25:40.901Z,101207.47
2022-08-10T03:28:20.944Z,101221.84
2022-08-10T03:30:48.763Z,101215.50
2022-08-10T03:33:16.216Z,101206.66
2022-08-10T03:35:43.704Z,101207.47
2022-08-10T03:38:31.041Z,101211.91
2022-08-10T03:40:59.507Z,101199.47
2022-08-10T03:43:27.469Z,101211.06
2022-08-10T03:45:59.031Z,101207.47
2022-08-10T03:48:32.352Z,101214.13
2022-08-10T03:51:14.703Z,101218.53
2022-08-10T03:54:04.567Z,101207.47
2022-08-10T03:56:32.402Z,101215.75
2022-08-10T03:59:03.334Z,101213.81
2022-08-10T04:02:45.243Z,101210.25
2022-08-10T04:04:24.951Z,101213.81
2022-08-10T04:06:55.420Z,101215.75
2022-08-10T04:09:29.740Z,101211.34
2022-08-10T04:12:10.208Z,101217.44
2022-08-10T04:14:48.897Z,101218.53
2022-08-10T04:17:17.678Z,101212.19
2022-08-10T04:20:07.260Z,101209.16
2022-08-10T04:22:37.469Z,101213.81
2022-08-10T04:25:05.501Z,101220.19
2022-08-10T04:27:33.550Z,101225.97
2022-08-10T04:30:01.006Z,101227.63
2022-08-10T04:32:28.459Z,101222.38
2022-08-10T04:34:55.913Z,101222.38
2022-08-10T04:37:23.368Z,101221.53
2022-08-10T04:39:50.938Z,101223.22
2022-08-10T04:42:18.433Z,101218.53
2022-08-10T04:44:45.885Z,101228.72
2022-08-10T04:47:13.378Z,101235.06
2022-08-10T04:49:54.510Z,101230.66
2022-08-10T04:52:26.034Z,101232.31
2022-08-10T04:54:53.505Z,101227.06
2022-08-10T04:57:20.953Z,101242.53
2022-08-10T04:59:48.626Z,101244.47
2022-08-10T05:02:31.225Z,101251.88
2022-08-10T05:04:59.493Z,101251.63
2022-08-10T05:07:26.995Z,101246.94
2022-08-10T05:10:03.614Z,101251.88
2022-08-10T05:12:35.923Z,101256.31
2022-08-10T05:15:08.196Z,101258.25
2022-08-10T05:17:36.125Z,101257.97
2022-08-10T05:20:07.992Z,101254.38
2022-08-10T05:22:53.954Z,101256.06
2022-08-10T05:25:21.387Z,101257.69
2022-08-10T05:27:48.952Z,101259.63
2022-08-10T05:30:20.052Z,101257.97
2022-08-10T05:32:56.913Z,101255.19
2022-08-10T05:35:27.961Z,101254.13
2022-08-10T05:38:09.891Z,101249.69
2022-08-10T05:40:47.058Z,101249.44
2022-08-10T05:43:22.431Z,101256.06
2022-08-10T05:46:19.998Z,101254.94
2022-08-10T05:48:56.894Z,101255.75
2022-08-10T05:51:26.149Z,101255.75
2022-08-10T05:54:01.480Z,101253.00
2022-08-10T05:56:54.869Z,101255.75
2022-08-10T06:00:32.384Z,101258.53
2022-08-10T06:02:33.003Z,101264.94
2022-08-10T06:04:58.628Z,101253.91
2022-08-10T06:07:27.435Z,101260.47
2022-08-10T06:09:59.661Z,101263.22
2022-08-10T06:12:30.345Z,101263.00
2022-08-10T06:15:05.785Z,101269.56
2022-08-10T06:17:37.790Z,101274.03
2022-08-10T06:20:05.954Z,101264.03
2022-08-10T06:22:33.557Z,101272.09
2022-08-10T06:27:49.192Z,101260.81
2022-08-10T06:30:20.006Z,101265.50
2022-08-10T06:32:49.883Z,101264.63
2022-08-10T06:35:17.790Z,101264.63
2022-08-10T06:37:51.717Z,101267.41
2022-08-10T06:40:21.194Z,101262.47
2022-08-10T06:42:49.022Z,101266.31
2022-08-10T06:45:23.381Z,101268.25
2022-08-10T06:48:04.351Z,101275.69
2022-08-10T06:50:59.540Z,101276.53
2022-08-10T06:53:53.875Z,101284.56
2022-08-10T06:56:36.226Z,101286.19
2022-08-10T06:59:08.407Z,101277.91
2022-08-10T07:01:59.697Z,101282.63
2022-08-10T07:04:32.889Z,101280.69
2022-08-10T07:07:05.098Z,101284.56
2022-08-10T07:09:34.991Z,101282.63
2022-08-10T07:12:07.796Z,101284.56
2022-08-10T07:14:41.583Z,101287.31
2022-08-10T07:17:17.305Z,101288.38
2022-08-10T07:19:52.112Z,101282.03
2022-08-10T07:23:50.720Z,101290.31
2022-08-10T07:25:09.257Z,101290.31
2022-08-10T07:27:58.848Z,101290.06
2022-08-10T07:30:30.711Z,101295.59
2022-08-10T07:32:58.192Z,101293.66
2022-08-10T07:35:26.013Z,101292.81
2022-08-10T07:37:53.566Z,101301.09
2022-08-10T07:40:21.480Z,101291.16
2022-08-10T07:42:51.114Z,101301.94
2022-08-10T07:45:18.541Z,101293.91
2022-08-10T07:47:53.680Z,101288.38
2022-08-10T07:50:23.309Z,101284.81
2022-08-10T07:52:51.346Z,101294.72
2022-08-10T07:56:02.234Z,101290.31
2022-08-10T07:58:13.022Z,101290.88
2022-08-10T08:00:40.476Z,101290.06
2022-08-10T08:03:09.325Z,101291.97
2022-08-10T08:05:58.056Z,101290.06
2022-08-10T08:08:25.229Z,101287.03
2022-08-10T08:10:55.770Z,101280.13
2022-08-10T08:13:23.341Z,101289.22
2022-08-10T08:16:17.021Z,101288.13
2022-08-10T08:18:39.717Z,101285.38
2022-08-10T08:21:19.076Z,101277.91
2022-08-10T08:24:30.839Z,101285.13
2022-08-10T08:26:55.134Z,101280.13
2022-08-10T08:29:22.599Z,101290.88
2022-08-10T08:31:54.488Z,101279.03
2022-08-10T08:34:34.570Z,101279.84
2022-08-10T08:37:02.099Z,101279.59
2022-08-10T08:39:31.984Z,101284.25
2022-08-10T08:42:19.732Z,101279.84
2022-08-10T08:45:03.385Z,101274.06
2022-08-10T08:48:03.968Z,101280.69
2022-08-10T08:50:55.223Z,101280.41
2022-08-10T08:54:03.606Z,101281.50
2022-08-10T08:56:45.824Z,101284.00
2022-08-10T08:59:42.027Z,101276.84
2022-08-10T09:02:37.726Z,101275.97
2022-08-10T09:05:20.433Z,101271.56
2022-08-10T09:08:00.010Z,101268.00
2022-08-10T09:10:37.670Z,101277.91
2022-08-10T09:13:39.892Z,101280.69
2022-08-10T09:16:29.957Z,101276.84
2022-08-10T09:19:07.132Z,101280.69
2022-08-10T09:22:17.183Z,101275.16
2022-08-10T09:24:54.544Z,101278.47
2022-08-10T09:27:25.171Z,101275.97
2022-08-10T09:29:55.356Z,101268.56
2022-08-10T09:36:13.944Z,101275.97
2022-08-10T09:36:24.757Z,101278.47
2022-08-10T09:38:46.746Z,101267.44
2022-08-10T09:41:32.205Z,101272.13
2022-08-10T09:44:14.163Z,101269.38
2022-08-10T09:46:53.720Z,101263.88
2022-08-10T09:50:03.719Z,101265.81
2022-08-10T09:52:42.007Z,101259.16
2022-08-10T09:56:18.537Z,101266.38
2022-08-10T09:58:26.159Z,101263.59
2022-08-10T10:01:57.920Z,101258.34
2022-08-10T10:04:05.488Z,101251.72
2022-08-10T10:06:40.059Z,101258.09
2022-08-10T10:09:30.410Z,101245.38
2022-08-10T10:12:19.245Z,101254.47
2022-08-10T10:15:24.064Z,101250.06
2022-08-10T10:18:07.911Z,101246.19
2022-08-10T10:20:42.032Z,101253.66
2022-08-10T10:23:12.343Z,101249.81
2022-08-10T10:25:55.462Z,101242.66
2022-08-10T10:29:30.794Z,101242.91
2022-08-10T10:31:52.548Z,101236.56
2022-08-10T10:34:38.074Z,101244.00
2022-08-10T10:37:06.692Z,101236.56
2022-08-10T10:39:35.066Z,101231.06
2022-08-10T10:42:44.354Z,101227.72
2022-08-10T10:45:26.299Z,101218.34
2022-08-10T10:48:23.722Z,101220.53
2022-08-10T10:51:12.496Z,101210.06
2022-08-10T10:53:50.108Z,101206.22
2022-08-10T10:56:48.569Z,101207.31
2022-08-10T10:59:55.539Z,101206.22
2022-08-10T11:02:37.912Z,101195.19
2022-08-10T11:05:32.785Z,101202.34
2022-08-10T11:08:29.257Z,101197.13
2022-08-10T11:11:59.784Z,101199.06
2022-08-10T11:14:30.260Z,101196.56
2022-08-10T11:17:18.979Z,101190.22
2022-08-10T11:20:04.343Z,101194.06
2022-08-10T11:23:03.023Z,101186.63
2022-08-10T11:25:36.246Z,101179.19
2022-08-10T11:28:21.604Z,101180.84
2022-08-10T11:30:55.245Z,101184.41
2022-08-10T11:33:30.621Z,101181.94
2022-08-10T11:36:24.012Z,101183.03
2022-08-10T11:39:14.016Z,101176.44
2022-08-10T11:42:09.642Z,101177.50
2022-08-10T11:44:40.775Z,101173.38
2022-08-10T11:47:10.241Z,101172.56
2022-08-10T11:49:49.623Z,101172.25
2022-08-10T11:52:22.907Z,101172.00
2022-08-10T11:54:54.275Z,101169.25
2022-08-10T11:57:23.836Z,101163.72
2022-08-10T11:59:58.137Z,101166.22
2022-08-10T12:02:37.636Z,101165.41
2022-08-10T12:05:11.100Z,101159.88
2022-08-10T12:08:54.926Z,101160.69
2022-08-10T12:10:29.916Z,101156.81
2022-08-10T12:14:19.748Z,101155.19
2022-08-10T12:16:47.307Z,101149.97
2022-08-10T12:19:59.794Z,101151.31
2022-08-10T12:22:40.873Z,101141.94
2022-08-10T12:25:18.096Z,101141.13
2022-08-10T12:28:51.269Z,101147.47
2022-08-10T12:31:29.456Z,101141.94
2022-08-10T12:34:34.349Z,101139.44
2022-08-10T12:37:27.050Z,101124.56
2022-08-10T12:40:33.914Z,101126.75
2022-08-10T12:44:06.636Z,101123.72
2022-08-10T12:46:26.891Z,101124.56
2022-08-10T12:49:04.017Z,101121.25
2022-08-10T12:51:31.576Z,101122.88
2022-08-10T12:54:11.775Z,101117.38
2022-08-10T12:56:47.367Z,101113.53
2022-08-10T12:59:14.924Z,101111.84
2022-08-10T13:02:06.304Z,101109.34
2022-08-10T13:04:35.676Z,101102.50
2022-08-10T13:07:04.397Z,101096.13
2022-08-10T13:09:32.209Z,101096.97
2022-08-10T13:12:35.355Z,101084.53
2022-08-10T13:15:44.976Z,101093.91
2022-08-10T13:18:05.821Z,101089.25
2022-08-10T13:20:45.424Z,101082.06
2022-08-10T13:23:19.871Z,101083.19
2022-08-10T13:25:48.525Z,101079.28
2022-08-10T13:28:37.630Z,101075.72
2022-08-10T13:31:07.425Z,101071.84
2022-08-10T13:34:41.415Z,101071.84
2022-08-10T13:36:38.621Z,101071.84
2022-08-10T13:39:06.511Z,101072.69
2022-08-10T13:41:41.234Z,101074.03
2022-08-10T13:44:12.301Z,101056.41
2022-08-10T13:46:42.143Z,101051.72
2022-08-10T13:49:09.866Z,101045.38
2022-08-10T13:51:57.110Z,101046.19
2022-08-10T13:54:27.998Z,101043.44
2022-08-10T13:56:55.880Z,101047.00
2022-08-10T13:59:26.684Z,101050.06
2022-08-10T14:02:14.572Z,101047.84
2022-08-10T14:04:46.061Z,101040.66
2022-08-10T14:07:14.098Z,101032.38
2022-08-10T14:09:44.148Z,101037.91
2022-08-10T14:12:11.583Z,101034.06
2022-08-10T14:14:39.067Z,101031.56
2022-08-10T14:17:06.616Z,101038.72
2022-08-10T14:19:37.621Z,101031.56
2022-08-10T14:22:10.870Z,101024.94
2022-08-10T14:24:38.288Z,101016.94
2022-08-10T14:27:12.424Z,101023.28
2022-08-10T14:29:42.070Z,101016.94
2022-08-10T14:32:13.118Z,101012.28
2022-08-10T14:36:16.801Z,101008.09
2022-08-10T14:37:38.027Z,101009.50
2022-08-10T14:40:08.485Z,101012.00
2022-08-10T14:42:42.882Z,101004.53
2022-08-10T14:45:30.041Z,100999.28
2022-08-10T14:48:08.549Z,101005.63
2022-08-10T14:50:38.890Z,101004.53
2022-08-10T14:53:26.547Z,100992.66
2022-08-10T14:56:01.952Z,100986.31
2022-08-10T14:59:05.427Z,100995.44
2022-08-10T15:02:01.514Z,100986.03
2022-08-10T15:04:24.903Z,100981.38
2022-08-10T15:07:12.236Z,100987.16
2022-08-10T15:10:00.945Z,100981.63
2022-08-10T15:12:34.415Z,100988.78
2022-08-10T15:15:03.279Z,100985.22
2022-08-10T15:17:35.238Z,100986.03
2022-08-10T15:20:22.282Z,100987.16
2022-08-10T15:23:00.885Z,100979.44
2022-08-10T15:25:28.628Z,100979.69
2022-08-10T15:28:06.106Z,100972.81
2022-08-10T15:30:42.567Z,100975.25
2022-08-10T15:34:03.098Z,100973.34
2022-08-10T15:36:40.613Z,100975.84
2022-08-10T15:39:16.683Z,100972.25
2022-08-10T15:42:00.292Z,100967.56
2022-08-10T15:44:41.751Z,100971.69
2022-08-10T15:47:45.851Z,100968.38
2022-08-10T15:50:15.907Z,100961.47
2022-08-10T15:53:00.694Z,100956.81
2022-08-10T15:55:45.716Z,100960.66
2022-08-10T15:58:18.810Z,100961.47
2022-08-10T16:00:50.280Z,100956.81
2022-08-10T16:03:23.548Z,100960.66
2022-08-10T16:06:01.681Z,100962.31
2022-08-10T16:10:21.905Z,100954.03
2022-08-10T16:11:48.049Z,100955.41
2022-08-10T16:14:17.353Z,100952.09
2022-08-10T16:16:49.607Z,100947.41
2022-08-10T16:19:24.335Z,100953.19
2022-08-10T16:22:00.050Z,100956.81
2022-08-10T16:24:30.622Z,100958.72
2022-08-10T16:26:58.152Z,100955.94
2022-08-10T16:29:26.163Z,100957.63
2022-08-10T16:31:58.323Z,100955.13
2022-08-10T16:34:27.193Z,100961.47
2022-08-10T16:36:56.665Z,100962.31
2022-08-10T16:39:58.389Z,100961.47
2022-08-10T16:42:28.598Z,100975.00
2022-08-10T16:45:45.572Z,100973.34
2022-08-10T16:48:48.751Z,100975.56
2022-08-10T16:51:05.120Z,100973.91
2022-08-10T16:53:33.012Z,100983.28
2022-08-10T16:56:02.501Z,100982.44
2022-08-10T16:58:40.008Z,100981.91
2022-08-10T17:01:20.193Z,100988.78
2022-08-10T17:04:08.683Z,100983.28
2022-08-10T17:06:52.559Z,100985.22
2022-08-10T17:09:26.329Z,100992.41
2022-08-10T17:11:58.321Z,100996.25
2022-08-10T17:14:30.257Z,100986.31
2022-08-10T17:17:02.772Z,100983.53
2022-08-10T17:19:31.899Z,100996.25
2022-08-10T17:22:00.112Z,100986.31
2022-08-10T17:24:34.630Z,100990.44
2022-08-10T17:28:04.449Z,100990.19
2022-08-10T17:30:03.671Z,100982.72
2022-08-10T17:32:44.479Z,100981.91
2022-08-10T17:35:14.649Z,100992.94
2022-08-10T17:37:53.623Z,100983.84
2022-08-10T17:40:23.314Z,100981.09
2022-08-10T17:42:54.403Z,100981.91
2022-08-10T17:45:48.173Z,100990.44
2022-08-10T17:48:12.497Z,100977.19
2022-08-10T17:50:41.164Z,100974.44
2022-08-10T17:53:14.509Z,100973.63
2022-08-10T17:55:43.077Z,100983.53
2022-08-10T17:58:15.074Z,100983.28
2022-08-10T18:01:16.019Z,100980.22
2022-08-10T18:03:54.503Z,100996.25
2022-08-10T18:06:22.124Z,101000.94
2022-08-10T18:08:53.343Z,100993.75
2022-08-10T18:11:20.859Z,100991.81
2022-08-10T18:13:55.229Z,100992.94
2022-08-10T18:16:26.218Z,100993.75
2022-08-10T18:19:00.168Z,101002.84
2022-08-10T18:21:30.939Z,101003.16
2022-08-10T18:24:05.648Z,100998.47
2022-08-10T18:26:37.434Z,101006.72
2022-08-10T18:29:21.750Z,101013.34
2022-08-10T18:31:49.694Z,101015.84
2022-08-10T18:34:18.606Z,101018.59
2022-08-10T18:36:47.152Z,101018.59
2022-08-10T18:39:15.231Z,101028.53
2022-08-10T18:42:00.378Z,101031.56
2022-08-10T18:44:35.588Z,101039.03
2022-08-10T18:47:06.490Z,101035.16
2022-08-10T18:49:41.322Z,101035.41
2022-08-10T18:52:10.240Z,101047.84
2022-08-10T18:54:46.257Z,101046.44
2022-08-10T18:57:28.975Z,101051.97
2022-08-10T19:00:08.821Z,101054.47
2022-08-10T19:02:56.858Z,101046.19
2022-08-10T19:05:48.301Z,101052.81
2022-08-10T19:08:34.727Z,101056.41
2022-08-10T19:11:05.483Z,101061.91
2022-08-10T19:13:53.361Z,101063.00
2022-08-10T19:16:39.695Z,101069.63
2022-08-10T19:19:30.939Z,101070.19
2022-08-10T19:22:02.851Z,101071.03
2022-08-10T19:25:02.325Z,101071.56
2022-08-10T19:27:46.509Z,101070.19
2022-08-10T19:30:15.386Z,101072.13
2022-08-10T19:32:54.906Z,101076.81
2022-08-10T19:36:05.492Z,101084.25
2022-08-10T19:38:51.752Z,101089.78
2022-08-10T19:41:42.021Z,101088.97
2022-08-10T19:44:19.309Z,101089.78
2022-08-10T19:46:51.724Z,101098.06
2022-08-10T19:49:47.738Z,101110.22
2022-08-10T19:53:00.250Z,101103.84
2022-08-10T19:55:37.390Z,101101.94
2022-08-10T19:58:22.804Z,101110.47
2022-08-10T20:01:03.916Z,101109.34
2022-08-10T20:03:59.579Z,101109.66
2022-08-10T20:06:53.187Z,101107.72
2022-08-10T20:09:43.985Z,101114.88
2022-08-10T20:12:19.126Z,101113.22
2022-08-10T20:15:06.454Z,101120.69
2022-08-10T20:17:51.142Z,101113.22
2022-08-10T20:20:44.880Z,101119.84
2022-08-10T20:23:22.732Z,101125.34
2022-08-10T20:26:01.548Z,101121.78
2022-08-10T20:29:10.247Z,101128.41
2022-08-10T20:31:53.025Z,101123.44
2022-08-10T20:34:23.685Z,101130.06
2022-08-10T20:37:04.694Z,101133.06
2022-08-10T20:40:04.166Z,101133.06
2022-08-10T20:42:57.808Z,101138.59
2022-08-10T20:45:25.979Z,101136.38
2022-08-10T20:48:09.432Z,101139.44
2022-08-10T20:50:48.478Z,101144.09
2022-08-10T20:53:24.823Z,101137.75
2022-08-10T20:56:14.695Z,101143.28
2022-08-10T20:58:54.887Z,101146.03
2022-08-10T21:02:06.433Z,101148.53
2022-08-10T21:04:50.293Z,101147.16
2022-08-10T21:08:00.484Z,101152.69
2022-08-10T21:10:38.610Z,101150.75
2022-08-10T21:13:24.764Z,101157.91
2022-08-10T21:15:52.167Z,101158.75
2022-08-10T21:19:07.805Z,101156.53
2022-08-10T21:24:32.189Z,101168.13
2022-08-10T21:27:14.477Z,101172.00
2022-08-10T21:30:10.892Z,101175.00
2022-08-10T21:32:39.168Z,101175.56
2022-08-10T21:35:37.092Z,101172.25
2022-08-10T21:38:36.220Z,101176.66
2022-08-10T21:41:56.671Z,101172.00
2022-08-10T21:48:39.421Z,101183.03
2022-08-10T21:52:01.435Z,101176.66
2022-08-10T21:54:54.386Z,101175.56
2022-08-10T21:58:09.511Z,101178.59
2022-08-10T22:00:57.549Z,101176.41
2022-08-10T22:03:43.531Z,101178.34
2022-08-10T22:06:29.907Z,101186.88
2022-08-10T22:09:22.034Z,101179.72
2022-08-10T22:12:30.950Z,101167.81
2022-08-10T22:16:03.267Z,101171.44
2022-08-10T22:18:31.823Z,101174.47
2022-08-10T22:21:45.305Z,101177.50
2022-08-10T22:24:47.326Z,101181.09
2022-08-10T22:27:57.900Z,101184.94
2022-08-10T22:31:22.823Z,101180.81
2022-08-10T22:31:25.188Z,101171.13
2022-08-10T22:31:28.110Z,101159.84
2022-08-10T22:34:01.560Z,101194.63
2022-08-10T22:37:14.944Z,101200.41
2022-08-10T22:40:23.552Z,101204.53
2022-08-10T22:43:12.400Z,101212.00
2022-08-10T22:46:07.547Z,101210.06
2022-08-10T22:49:01.029Z,101204.81
2022-08-10T22:51:51.308Z,101213.94
2022-08-10T22:55:10.571Z,101218.59
2022-08-10T22:58:06.221Z,101207.56
2022-08-10T23:00:33.833Z,101217.53
2022-08-10T23:03:16.879Z,101215.03
2022-08-10T23:06:08.475Z,101218.34
2022-08-10T23:08:53.322Z,101219.47
2022-08-10T23:11:24.954Z,101222.22
2022-08-10T23:13:56.166Z,101215.84
2022-08-10T23:16:44.016Z,101225.81
2022-08-10T23:19:24.797Z,101225.81
2022-08-10T23:22:06.296Z,101219.47
2022-08-10T23:24:38.553Z,101220.28
2022-08-10T23:27:12.396Z,101226.88
2022-08-10T23:30:03.654Z,101220.28
2022-08-10T23:32:36.750Z,101224.69
2022-08-10T23:36:29.929Z,101234.06
2022-08-10T23:38:07.796Z,101237.41
2022-08-10T23:40:35.535Z,101238.22
2022-08-10T23:43:02.975Z,101237.41
2022-08-10T23:45:53.428Z,101234.63
2022-08-10T23:48:19.898Z,101236.28
2022-08-10T23:50:53.352Z,101238.22
2022-08-10T23:53:34.155Z,101243.75
2022-08-10T23:56:16.755Z,101246.50
2022-08-10T23:58:49.424Z,101246.50
